createdAt,value
2019-02-21T00:01:40.595Z,99.90
2019-02-21T00:04:08.002Z,99.90
2019-02-21T00:06:36.319Z,99.90
2019-02-21T00:09:05.313Z,99.90
2019-02-21T00:11:32.967Z,99.90
2019-02-21T00:14:00.645Z,99.90
2019-02-21T00:16:28.005Z,99.90
2019-02-21T00:18:55.644Z,99.90
2019-02-21T00:21:23.609Z,99.90
2019-02-21T00:23:50.975Z,99.90
2019-02-21T00:26:18.844Z,99.90
2019-02-21T00:28:46.654Z,99.90
2019-02-21T00:31:14.361Z,99.90
2019-02-21T00:33:42.847Z,99.90
2019-02-21T00:36:10.150Z,99.90
2019-02-21T00:38:38.310Z,99.90
2019-02-21T00:41:06.130Z,99.90
2019-02-21T00:43:33.807Z,99.90
2019-02-21T00:46:02.062Z,99.90
2019-02-21T00:48:29.817Z,99.90
2019-02-21T00:50:57.432Z,99.90
2019-02-21T00:53:25.073Z,99.90
2019-02-21T00:55:52.900Z,99.90
2019-02-21T00:58:20.840Z,99.90
2019-02-21T01:00:48.221Z,99.90
2019-02-21T01:03:16.650Z,99.90
2019-02-21T01:05:44.001Z,99.90
2019-02-21T01:08:11.315Z,99.90
2019-02-21T01:10:38.692Z,99.90
2019-02-21T01:13:06.418Z,99.90
2019-02-21T01:15:33.963Z,99.90
2019-02-21T01:18:01.296Z,99.90
2019-02-21T01:20:29.767Z,99.90
2019-02-21T01:22:57.533Z,99.90
2019-02-21T01:25:24.942Z,99.90
2019-02-21T01:27:52.254Z,99.90
2019-02-21T01:30:20.401Z,99.90
2019-02-21T01:32:47.759Z,99.90
2019-02-21T01:35:15.191Z,99.90
2019-02-21T01:37:42.963Z,99.90
2019-02-21T01:40:10.670Z,99.90
2019-02-21T01:42:37.992Z,99.90
2019-02-21T01:45:05.959Z,99.90
2019-02-21T01:47:34.449Z,99.90
2019-02-21T01:50:03.433Z,99.90
2019-02-21T01:52:31.211Z,99.90
2019-02-21T01:54:58.853Z,99.90
2019-02-21T01:57:26.329Z,99.90
2019-02-21T01:59:53.683Z,99.90
2019-02-21T02:02:21.548Z,99.90
2019-02-21T02:04:49.315Z,99.90
2019-02-21T02:07:16.650Z,99.90
2019-02-21T02:09:45.051Z,99.90
2019-02-21T02:12:12.670Z,99.90
2019-02-21T02:14:40.059Z,99.90
2019-02-21T02:17:08.034Z,99.90
2019-02-21T02:19:35.376Z,99.90
2019-02-21T02:22:02.728Z,99.90
2019-02-21T02:24:30.346Z,99.90
2019-02-21T02:26:57.944Z,99.90
2019-02-21T02:29:26.107Z,99.90
2019-02-21T02:31:53.462Z,99.90
2019-02-21T02:34:21.144Z,99.90
2019-02-21T02:36:48.544Z,99.90
2019-02-21T02:39:16.170Z,99.90
2019-02-21T02:41:43.799Z,99.90
2019-02-21T02:44:11.937Z,99.90
2019-02-21T02:46:39.469Z,99.90
2019-02-21T02:49:07.898Z,99.90
2019-02-21T02:51:35.277Z,99.90
2019-02-21T02:54:02.913Z,99.90
2019-02-21T02:56:30.280Z,99.90
2019-02-21T02:58:58.773Z,99.90
2019-02-21T03:01:34.664Z,99.90
2019-02-21T03:03:55.815Z,99.90
2019-02-21T03:06:23.234Z,99.90
2019-02-21T03:08:50.684Z,99.90
2019-02-21T03:16:42.605Z,99.90
2019-02-21T03:19:10.606Z,99.90
2019-02-21T03:21:38.039Z,99.90
2019-02-21T03:24:05.356Z,99.90
2019-02-21T03:26:32.711Z,99.90
2019-02-21T03:29:00.012Z,99.90
2019-02-21T03:31:27.698Z,99.90
2019-02-21T03:33:55.747Z,99.90
2019-02-21T03:36:23.049Z,99.90
2019-02-21T03:38:50.689Z,99.90
2019-02-21T03:41:18.078Z,99.90
2019-02-21T03:43:45.387Z,99.90
2019-02-21T03:46:13.072Z,99.90
2019-02-21T03:48:40.645Z,99.90
2019-02-21T03:51:07.984Z,99.90
2019-02-21T03:53:35.303Z,99.90
2019-02-21T03:56:02.691Z,99.90
2019-02-21T03:58:30.622Z,99.90
2019-02-21T04:00:58.278Z,99.90
2019-02-21T04:03:25.805Z,99.90
2019-02-21T04:05:53.499Z,99.90
2019-02-21T04:08:20.884Z,99.90
2019-02-21T04:10:48.931Z,99.90
2019-02-21T04:13:16.208Z,99.90
2019-02-21T04:15:43.521Z,99.90
2019-02-21T04:18:11.157Z,99.90
2019-02-21T04:20:38.437Z,99.90
2019-02-21T04:23:05.740Z,99.90
2019-02-21T04:25:33.697Z,99.90
2019-02-21T04:28:01.342Z,99.90
2019-02-21T04:30:28.645Z,99.90
2019-02-21T04:32:55.962Z,99.90
2019-02-21T04:35:23.250Z,99.90
2019-02-21T04:37:50.996Z,99.90
2019-02-21T04:40:18.344Z,99.90
2019-02-21T04:42:45.660Z,99.90
2019-02-21T04:45:13.530Z,99.90
2019-02-21T04:47:40.834Z,99.90
2019-02-21T04:50:08.196Z,99.90
2019-02-21T04:52:35.590Z,99.90
2019-02-21T04:55:03.059Z,99.90
2019-02-21T04:57:30.718Z,99.90
2019-02-21T04:59:58.006Z,99.90
2019-02-21T05:02:28.955Z,99.90
2019-02-21T05:04:54.525Z,99.90
2019-02-21T05:07:21.982Z,99.90
2019-02-21T05:09:57.368Z,99.90
2019-02-21T05:12:18.524Z,99.90
2019-02-21T05:14:46.166Z,99.90
2019-02-21T05:17:14.020Z,99.90
2019-02-21T05:19:41.664Z,99.90
2019-02-21T05:22:09.087Z,99.90
2019-02-21T05:24:36.716Z,99.90
2019-02-21T05:27:29.804Z,99.90
2019-02-21T05:29:57.093Z,99.90
2019-02-21T05:32:43.930Z,99.90
2019-02-21T05:35:32.993Z,99.90
2019-02-21T05:38:35.012Z,99.90
2019-02-21T05:41:31.153Z,99.90
2019-02-21T05:44:21.090Z,99.90
2019-02-21T05:47:15.300Z,99.90
2019-02-21T05:50:00.988Z,99.90
2019-02-21T05:52:57.222Z,99.90
2019-02-21T05:55:38.781Z,99.90
2019-02-21T05:58:12.722Z,99.90
2019-02-21T06:00:58.877Z,99.90
2019-02-21T06:04:03.686Z,99.90
2019-02-21T06:06:53.636Z,99.90
2019-02-21T06:09:36.121Z,99.90
2019-02-21T06:12:11.004Z,99.90
2019-02-21T06:14:43.241Z,99.90
2019-02-21T06:17:36.554Z,99.90
2019-02-21T06:20:21.977Z,99.90
2019-02-21T06:23:07.967Z,99.90
2019-02-21T06:25:53.217Z,99.90
2019-02-21T06:28:28.891Z,99.90
2019-02-21T06:31:02.519Z,99.90
2019-02-21T06:33:30.254Z,99.90
2019-02-21T06:35:57.931Z,99.90
2019-02-21T06:38:25.366Z,99.90
2019-02-21T06:40:52.690Z,99.90
2019-02-21T06:43:20.058Z,99.90
2019-02-21T06:45:47.814Z,99.90
2019-02-21T06:48:15.545Z,99.90
2019-02-21T06:50:42.900Z,99.90
2019-02-21T06:53:10.363Z,99.90
2019-02-21T06:55:38.176Z,99.90
2019-02-21T06:58:05.543Z,99.90
2019-02-21T07:00:32.854Z,99.90
2019-02-21T07:03:00.736Z,99.90
2019-02-21T07:05:28.044Z,99.90
2019-02-21T07:07:55.959Z,99.90
2019-02-21T07:10:23.364Z,99.90
2019-02-21T07:12:51.560Z,99.90
2019-02-21T07:15:19.039Z,99.90
2019-02-21T07:17:49.389Z,99.90
2019-02-21T07:20:15.600Z,99.90
2019-02-21T07:22:43.732Z,99.90
2019-02-21T07:25:24.914Z,99.90
2019-02-21T07:27:52.657Z,99.90
2019-02-21T07:30:23.013Z,99.90
2019-02-21T07:32:49.275Z,99.90
2019-02-21T07:35:17.290Z,99.90
2019-02-21T07:37:44.937Z,99.90
2019-02-21T07:40:19.768Z,99.90
2019-02-21T07:42:41.879Z,99.90
2019-02-21T07:45:09.797Z,99.90
2019-02-21T07:47:37.272Z,99.90
2019-02-21T07:50:05.070Z,99.90
2019-02-21T07:52:32.621Z,99.90
2019-02-21T07:55:02.112Z,99.90
2019-02-21T07:57:29.358Z,99.90
2019-02-21T08:00:00.209Z,99.90
2019-02-21T08:02:27.785Z,99.90
2019-02-21T08:04:55.254Z,99.90
2019-02-21T08:07:23.143Z,99.90
2019-02-21T08:09:51.247Z,99.90
2019-02-21T08:12:19.022Z,99.90
2019-02-21T08:14:46.876Z,99.90
2019-02-21T08:17:16.214Z,99.90
2019-02-21T08:19:43.730Z,99.90
2019-02-21T08:22:11.267Z,99.90
2019-02-21T08:24:38.714Z,99.90
2019-02-21T08:27:06.828Z,99.90
2019-02-21T08:29:34.199Z,99.90
2019-02-21T08:32:01.644Z,99.90
2019-02-21T08:34:33.105Z,99.90
2019-02-21T08:37:00.497Z,99.90
2019-02-21T08:39:27.969Z,99.90
2019-02-21T08:41:55.400Z,99.90
2019-02-21T08:44:23.008Z,99.90
2019-02-21T08:46:53.433Z,99.90
2019-02-21T08:49:20.132Z,99.90
2019-02-21T08:51:47.830Z,99.90
2019-02-21T08:54:16.209Z,99.90
2019-02-21T08:56:44.050Z,99.90
2019-02-21T08:59:11.616Z,99.90
2019-02-21T09:01:39.024Z,99.80
2019-02-21T09:04:10.461Z,99.30
2019-02-21T09:06:35.920Z,99.20
2019-02-21T09:09:04.873Z,99.10
2019-02-21T09:11:32.216Z,98.10
2019-02-21T09:13:59.844Z,98.80
2019-02-21T09:16:27.636Z,99.20
2019-02-21T09:18:55.504Z,99.20
2019-02-21T09:21:23.426Z,99.20
2019-02-21T09:23:50.881Z,99.00
2019-02-21T09:26:21.455Z,98.30
2019-02-21T09:28:48.230Z,97.80
2019-02-21T09:31:16.005Z,97.40
2019-02-21T09:33:44.014Z,96.00
2019-02-21T09:36:12.631Z,94.60
2019-02-21T09:38:40.809Z,94.20
2019-02-21T09:41:09.678Z,92.80
2019-02-21T09:43:37.787Z,94.10
2019-02-21T09:46:05.960Z,92.10
2019-02-21T09:48:34.235Z,91.60
2019-02-21T09:51:02.633Z,93.60
2019-02-21T09:53:30.302Z,94.00
2019-02-21T09:55:58.328Z,94.80
2019-02-21T09:58:25.928Z,94.70
2019-02-21T10:00:53.898Z,92.90
2019-02-21T10:03:21.745Z,90.80
2019-02-21T10:05:49.947Z,88.30
2019-02-21T10:08:17.622Z,88.20
2019-02-21T10:10:45.638Z,84.90
2019-02-21T10:13:13.537Z,83.80
2019-02-21T10:15:41.375Z,84.90
2019-02-21T10:18:09.222Z,84.80
2019-02-21T10:20:42.888Z,84.30
2019-02-21T10:23:10.905Z,81.50
2019-02-21T10:25:38.976Z,82.20
2019-02-21T10:28:06.733Z,77.10
2019-02-21T10:30:36.391Z,73.00
2019-02-21T10:33:04.038Z,73.30
2019-02-21T10:35:32.073Z,72.50
2019-02-21T10:38:00.393Z,73.90
2019-02-21T10:40:27.878Z,72.90
2019-02-21T10:42:55.872Z,73.10
2019-02-21T10:45:23.865Z,73.30
2019-02-21T10:47:51.463Z,75.70
2019-02-21T10:50:19.761Z,74.40
2019-02-21T10:52:47.595Z,73.00
2019-02-21T10:55:16.277Z,72.90
2019-02-21T10:57:45.537Z,74.10
2019-02-21T11:00:19.436Z,76.00
2019-02-21T11:02:47.438Z,79.60
2019-02-21T11:05:15.800Z,81.10
2019-02-21T11:07:44.369Z,82.70
2019-02-21T11:10:13.073Z,85.10
2019-02-21T11:12:41.044Z,84.80
2019-02-21T11:15:11.161Z,84.50
2019-02-21T11:17:38.855Z,86.40
2019-02-21T11:20:09.773Z,90.00
2019-02-21T11:22:37.417Z,91.50
2019-02-21T11:25:05.446Z,91.70
2019-02-21T11:27:33.364Z,92.70
2019-02-21T11:30:01.342Z,92.50
2019-02-21T11:32:28.759Z,93.00
2019-02-21T11:35:05.851Z,92.10
2019-02-21T11:37:25.692Z,91.90
2019-02-21T11:39:53.174Z,92.10
2019-02-21T11:42:20.778Z,92.60
2019-02-21T11:44:50.798Z,92.70
2019-02-21T11:47:18.528Z,93.00
2019-02-21T11:49:46.786Z,92.80
2019-02-21T11:52:14.801Z,94.00
2019-02-21T11:54:42.484Z,94.30
2019-02-21T11:57:09.960Z,94.70
2019-02-21T11:59:37.546Z,95.70
2019-02-21T12:02:05.659Z,95.80
2019-02-21T12:04:33.668Z,96.40
2019-02-21T12:07:01.210Z,96.00
2019-02-21T12:09:37.078Z,96.20
2019-02-21T12:12:04.904Z,97.00
2019-02-21T12:14:32.467Z,96.20
2019-02-21T12:17:00.029Z,96.10
2019-02-21T12:19:27.465Z,96.40
2019-02-21T12:21:59.173Z,96.50
2019-02-21T12:24:26.136Z,97.30
2019-02-21T12:26:54.174Z,97.30
2019-02-21T12:29:21.991Z,97.40
2019-02-21T12:31:49.659Z,98.10
2019-02-21T12:34:17.208Z,98.10
2019-02-21T12:36:45.413Z,98.10
2019-02-21T12:39:13.028Z,98.20
2019-02-21T12:41:41.615Z,98.40
2019-02-21T12:44:09.407Z,99.10
2019-02-21T12:46:37.460Z,99.50
2019-02-21T12:49:05.024Z,99.40
2019-02-21T12:51:32.669Z,99.10
2019-02-21T12:54:00.130Z,99.00
2019-02-21T12:56:27.986Z,98.70
2019-02-21T12:58:55.598Z,98.90
2019-02-21T13:01:23.485Z,98.70
2019-02-21T13:03:51.442Z,98.40
2019-02-21T13:06:21.672Z,97.90
2019-02-21T13:08:49.648Z,97.80
2019-02-21T13:11:19.300Z,98.30
2019-02-21T13:13:46.922Z,98.60
2019-02-21T13:16:14.704Z,98.20
2019-02-21T13:18:42.684Z,97.70
2019-02-21T13:21:10.260Z,96.80
2019-02-21T13:23:37.850Z,96.40
2019-02-21T13:26:06.039Z,95.40
2019-02-21T13:28:38.424Z,95.20
2019-02-21T13:31:06.022Z,95.40
2019-02-21T13:33:33.935Z,94.90
2019-02-21T13:36:01.986Z,93.20
2019-02-21T13:38:29.891Z,93.20
2019-02-21T13:40:57.948Z,91.70
2019-02-21T13:43:25.875Z,90.40
2019-02-21T13:45:53.471Z,91.10
2019-02-21T13:48:21.665Z,90.80
2019-02-21T13:50:49.664Z,86.20
2019-02-21T13:53:17.368Z,84.60
2019-02-21T13:55:44.908Z,88.40
2019-02-21T13:58:12.770Z,89.20
2019-02-21T14:00:40.954Z,88.20
2019-02-21T14:03:08.874Z,90.10
2019-02-21T14:05:36.462Z,90.30
2019-02-21T14:08:04.547Z,87.60
2019-02-21T14:10:32.801Z,88.30
2019-02-21T14:13:00.377Z,88.30
2019-02-21T14:15:28.301Z,90.20
2019-02-21T14:17:56.460Z,90.40
2019-02-21T14:20:24.241Z,90.10
2019-02-21T14:22:56.678Z,91.70
2019-02-21T14:25:24.762Z,92.40
2019-02-21T14:27:52.809Z,92.90
2019-02-21T14:30:20.625Z,92.40
2019-02-21T14:32:48.373Z,92.10
2019-02-21T14:35:16.391Z,92.60
2019-02-21T14:37:47.484Z,92.70
2019-02-21T14:40:15.083Z,91.70
2019-02-21T14:42:42.613Z,91.20
2019-02-21T14:45:12.819Z,91.70
2019-02-21T14:47:40.344Z,92.30
2019-02-21T14:50:09.053Z,92.60
2019-02-21T14:52:37.032Z,93.10
2019-02-21T14:55:05.396Z,92.80
2019-02-21T14:57:40.457Z,92.70
2019-02-21T15:00:02.792Z,91.80
2019-02-21T15:02:30.873Z,91.50
2019-02-21T15:04:58.521Z,91.10
2019-02-21T15:07:26.523Z,91.40
2019-02-21T15:09:54.137Z,92.10
2019-02-21T15:12:21.808Z,92.60
2019-02-21T15:14:49.444Z,92.20
2019-02-21T15:17:18.572Z,91.90
2019-02-21T15:19:46.702Z,92.70
2019-02-21T15:22:15.036Z,92.90
2019-02-21T15:24:43.253Z,92.90
2019-02-21T15:27:10.978Z,93.50
2019-02-21T15:29:41.475Z,94.00
2019-02-21T15:32:11.557Z,94.40
2019-02-21T15:34:38.252Z,94.20
2019-02-21T15:37:05.773Z,94.80
2019-02-21T15:39:35.436Z,95.30
2019-02-21T15:42:04.677Z,95.80
2019-02-21T15:44:32.972Z,96.00
2019-02-21T15:47:00.822Z,96.00
2019-02-21T15:49:29.143Z,96.80
2019-02-21T15:51:57.402Z,97.20
2019-02-21T15:54:25.323Z,97.50
2019-02-21T15:56:53.937Z,97.60
2019-02-21T15:59:21.975Z,98.00
2019-02-21T16:01:49.712Z,97.80
2019-02-21T16:04:17.689Z,98.50
2019-02-21T16:06:51.063Z,98.50
2019-02-21T16:09:16.785Z,99.10
2019-02-21T16:11:46.096Z,98.70
2019-02-21T16:14:13.668Z,98.90
2019-02-21T16:16:44.564Z,98.60
2019-02-21T16:19:12.151Z,99.00
2019-02-21T16:21:40.341Z,99.50
2019-02-21T16:24:08.017Z,99.60
2019-02-21T16:26:35.566Z,99.70
2019-02-21T16:29:03.589Z,99.50
2019-02-21T16:31:32.343Z,99.40
2019-02-21T16:33:59.998Z,99.90
2019-02-21T16:36:27.710Z,99.90
2019-02-21T16:38:56.007Z,99.90
2019-02-21T16:41:24.209Z,99.90
2019-02-21T16:43:52.129Z,99.90
2019-02-21T16:46:21.062Z,99.90
2019-02-21T16:48:48.821Z,99.90
2019-02-21T16:51:16.455Z,99.90
2019-02-21T16:53:45.592Z,99.90
2019-02-21T16:56:13.561Z,99.90
2019-02-21T16:58:42.855Z,99.90
2019-02-21T17:01:11.135Z,99.90
2019-02-21T17:03:38.889Z,99.90
2019-02-21T17:06:07.049Z,99.90
2019-02-21T17:08:35.353Z,99.90
2019-02-21T17:11:03.321Z,99.90
2019-02-21T17:13:31.429Z,99.90
2019-02-21T17:16:01.459Z,99.90
2019-02-21T17:18:28.969Z,99.90
2019-02-21T17:20:57.460Z,99.90
2019-02-21T17:23:25.426Z,99.90
2019-02-21T17:25:53.378Z,99.90
2019-02-21T17:28:20.978Z,99.90
2019-02-21T17:30:48.819Z,99.90
2019-02-21T17:33:17.416Z,99.90
2019-02-21T17:35:45.165Z,99.90
2019-02-21T17:38:14.455Z,99.90
2019-02-21T17:40:42.670Z,99.90
2019-02-21T17:43:10.651Z,99.90
2019-02-21T17:45:41.476Z,99.90
2019-02-21T17:48:11.113Z,99.90
2019-02-21T17:50:39.037Z,99.90
2019-02-21T17:53:07.192Z,99.90
2019-02-21T17:55:34.964Z,99.90
2019-02-21T17:58:02.553Z,99.90
2019-02-21T18:00:34.488Z,99.90
2019-02-21T18:03:03.443Z,99.90
2019-02-21T18:05:31.164Z,99.90
2019-02-21T18:07:58.841Z,99.90
2019-02-21T18:10:29.774Z,99.90
2019-02-21T18:12:57.933Z,99.90
2019-02-21T18:15:25.614Z,99.90
2019-02-21T18:17:53.957Z,99.90
2019-02-21T18:20:22.248Z,99.90
2019-02-21T18:22:50.418Z,99.90
2019-02-21T18:25:24.710Z,99.90
2019-02-21T18:27:52.747Z,99.90
2019-02-21T18:30:20.509Z,99.90
2019-02-21T18:32:48.530Z,99.90
2019-02-21T18:35:20.900Z,99.90
2019-02-21T18:37:48.669Z,99.90
2019-02-21T18:40:18.613Z,99.90
2019-02-21T18:42:49.983Z,99.90
2019-02-21T18:45:17.764Z,99.90
2019-02-21T18:47:45.481Z,99.90
2019-02-21T18:50:14.195Z,99.90
2019-02-21T18:52:42.968Z,99.90
2019-02-21T18:55:11.011Z,99.90
2019-02-21T18:57:39.303Z,99.90
2019-02-21T19:00:09.487Z,99.90
2019-02-21T19:02:38.348Z,99.90
2019-02-21T19:05:08.488Z,99.90
2019-02-21T19:07:36.686Z,99.90
2019-02-21T19:10:05.667Z,99.90
2019-02-21T19:12:33.922Z,99.90
2019-02-21T19:15:07.662Z,99.90
2019-02-21T19:17:38.097Z,99.90
2019-02-21T19:20:10.810Z,99.90
2019-02-21T19:22:40.644Z,99.90
2019-02-21T19:25:10.770Z,99.90
2019-02-21T19:27:40.272Z,99.90
2019-02-21T19:30:14.358Z,99.90
2019-02-21T19:32:43.324Z,99.90
2019-02-21T19:35:13.320Z,99.90
2019-02-21T19:37:41.325Z,99.90
2019-02-21T19:40:12.072Z,99.90
2019-02-21T19:42:44.461Z,99.90
2019-02-21T19:45:14.929Z,99.90
2019-02-21T19:47:43.205Z,99.90
2019-02-21T19:50:11.781Z,99.90
2019-02-21T19:52:40.385Z,99.90
2019-02-21T19:55:08.624Z,99.90
2019-02-21T19:57:36.619Z,99.90
2019-02-21T20:00:09.740Z,99.90
2019-02-21T20:02:38.939Z,99.90
2019-02-21T20:05:07.528Z,99.90
2019-02-21T20:07:35.400Z,99.90
2019-02-21T20:10:03.565Z,99.90
2019-02-21T20:12:32.040Z,99.90
2019-02-21T20:14:59.825Z,99.90
2019-02-21T20:17:30.623Z,99.90
2019-02-21T20:20:00.327Z,99.90
2019-02-21T20:22:30.368Z,99.90
2019-02-21T20:24:59.495Z,99.90
2019-02-21T20:27:27.700Z,99.90
2019-02-21T20:29:55.589Z,99.90
2019-02-21T20:32:23.709Z,99.90
2019-02-21T20:34:51.458Z,99.90
2019-02-21T20:37:20.725Z,99.90
2019-02-21T20:40:12.204Z,99.90
2019-02-21T20:43:00.228Z,99.90
2019-02-21T20:45:38.395Z,99.90
2019-02-21T20:48:12.242Z,99.90
2019-02-21T20:50:56.139Z,99.90
2019-02-21T20:53:37.369Z,99.90
2019-02-21T20:56:19.068Z,99.90
2019-02-21T20:59:22.157Z,99.90
2019-02-21T21:01:59.322Z,99.90
2019-02-21T21:04:32.949Z,99.90
2019-02-21T21:07:24.606Z,99.90
2019-02-21T21:10:02.466Z,99.90
2019-02-21T21:12:46.009Z,99.90
2019-02-21T21:15:18.592Z,99.90
2019-02-21T21:18:10.824Z,99.90
2019-02-21T21:20:36.233Z,99.90
2019-02-21T21:23:20.734Z,99.90
2019-02-21T21:25:54.701Z,99.90
2019-02-21T21:28:28.342Z,99.90
2019-02-21T21:31:10.645Z,99.90
2019-02-21T21:33:45.931Z,99.90
2019-02-21T21:36:37.147Z,99.90
2019-02-21T21:39:09.127Z,99.90
2019-02-21T21:41:43.649Z,99.90
2019-02-21T21:44:17.556Z,99.90
2019-02-21T21:46:55.168Z,99.90
2019-02-21T21:49:44.834Z,99.90
2019-02-21T21:52:21.130Z,99.90
2019-02-21T21:54:55.513Z,99.90
2019-02-21T21:57:35.447Z,99.90
2019-02-21T22:00:17.767Z,99.90
2019-02-21T22:02:50.259Z,99.90
2019-02-21T22:05:30.298Z,99.90
2019-02-21T22:08:11.169Z,99.90
2019-02-21T22:10:47.129Z,99.90
2019-02-21T22:13:26.805Z,99.90
2019-02-21T22:15:58.627Z,99.90
2019-02-21T22:18:31.443Z,99.90
2019-02-21T22:21:06.930Z,99.90
2019-02-21T22:23:46.908Z,99.90
2019-02-21T22:26:24.946Z,99.90
2019-02-21T22:28:58.001Z,99.90
2019-02-21T22:31:33.733Z,99.90
2019-02-21T22:34:03.135Z,99.90
2019-02-21T22:36:36.769Z,99.90
2019-02-21T22:39:16.796Z,99.90
2019-02-21T22:41:52.050Z,99.90
2019-02-21T22:44:23.207Z,99.90
2019-02-21T22:46:55.157Z,99.90
2019-02-21T22:49:22.725Z,99.90
2019-02-21T22:51:50.576Z,99.90
2019-02-21T22:54:19.013Z,99.90
2019-02-21T22:56:46.818Z,99.90
2019-02-21T22:59:14.730Z,99.90
2019-02-21T23:01:44.437Z,99.90
2019-02-21T23:04:22.242Z,99.90
2019-02-21T23:07:29.980Z,99.90
2019-02-21T23:09:57.482Z,99.90
2019-02-21T23:12:24.922Z,99.90
2019-02-21T23:14:52.291Z,99.90
2019-02-21T23:17:20.100Z,99.90
2019-02-21T23:19:47.601Z,99.90
2019-02-21T23:22:15.415Z,99.90
2019-02-21T23:24:42.859Z,99.90
2019-02-21T23:27:10.711Z,99.90
2019-02-21T23:29:38.504Z,99.90
2019-02-21T23:32:05.881Z,99.90
2019-02-21T23:34:38.153Z,99.90
2019-02-21T23:37:05.990Z,99.90
2019-02-21T23:39:38.321Z,99.90
2019-02-21T23:42:02.858Z,99.90
2019-02-21T23:44:31.053Z,99.90
2019-02-21T23:46:58.705Z,99.90
2019-02-21T23:49:26.223Z,99.90
2019-02-21T23:51:53.839Z,99.90
2019-02-21T23:54:21.355Z,99.90
2019-02-21T23:56:49.221Z,99.90
2019-02-21T23:59:17.663Z,99.90
